createdAt,value
2022-08-05T00:01:01.017Z,98529.00
2022-08-05T00:04:22.238Z,98530.40
2022-08-05T00:08:00.169Z,98521.40
2022-08-05T00:10:51.972Z,98515.40
2022-08-05T00:13:56.851Z,98517.80
2022-08-05T00:17:02.938Z,98516.80
2022-08-05T00:20:10.654Z,98514.60
2022-08-05T00:23:16.186Z,98521.00
2022-08-05T00:26:22.103Z,98524.20
2022-08-05T00:29:37.606Z,98518.60
2022-08-05T00:32:43.090Z,98521.60
2022-08-05T00:35:47.803Z,98523.80
2022-08-05T00:38:52.681Z,98517.60
2022-08-05T00:41:57.418Z,98518.20
2022-08-05T00:45:02.987Z,98515.60
2022-08-05T00:48:09.307Z,98516.60
2022-08-05T00:51:50.572Z,98516.80
2022-08-05T00:54:41.084Z,98515.00
2022-08-05T00:57:55.578Z,98504.40
2022-08-05T01:01:08.528Z,98505.20
2022-08-05T01:04:15.919Z,98496.00
2022-08-05T01:07:31.636Z,98495.00
2022-08-05T01:10:52.412Z,98497.00
2022-08-05T01:14:08.496Z,98491.40
2022-08-05T01:17:27.296Z,98495.80
2022-08-05T01:20:59.232Z,98497.60
2022-08-05T01:24:35.489Z,98497.00
2022-08-05T01:28:15.727Z,98493.40
2022-08-05T01:31:32.053Z,98499.40
2022-08-05T01:34:43.093Z,98494.40
2022-08-05T01:37:55.220Z,98497.20
2022-08-05T01:41:02.917Z,98498.20
2022-08-05T01:44:11.232Z,98498.00
2022-08-05T01:47:19.890Z,98499.60
2022-08-05T01:50:32.555Z,98502.80
2022-08-05T01:53:58.126Z,98504.60
2022-08-05T01:58:13.192Z,98502.40
2022-08-05T02:00:36.727Z,98498.20
2022-08-05T02:03:46.510Z,98504.00
2022-08-05T02:06:51.762Z,98502.60
2022-08-05T02:09:56.396Z,98499.80
2022-08-05T02:13:16.709Z,98498.40
2022-08-05T02:16:27.592Z,98500.60
2022-08-05T02:19:47.063Z,98497.00
2022-08-05T02:22:59.979Z,98499.40
2022-08-05T02:26:10.048Z,98495.40
2022-08-05T02:29:26.049Z,98497.80
2022-08-05T02:32:51.589Z,98489.00
2022-08-05T02:36:01.247Z,98493.40
2022-08-05T02:39:09.564Z,98488.60
2022-08-05T02:42:26.106Z,98491.20
2022-08-05T02:45:52.006Z,98484.00
2022-08-05T02:48:59.429Z,98480.60
2022-08-05T02:52:07.596Z,98479.80
2022-08-05T02:55:13.893Z,98475.00
2022-08-05T02:58:26.792Z,98474.80
2022-08-05T03:01:31.289Z,98473.00
2022-08-05T03:04:39.145Z,98473.60
2022-08-05T03:08:04.482Z,98472.40
2022-08-05T03:11:57.170Z,98470.80
2022-08-05T03:14:46.319Z,98463.00
2022-08-05T03:17:56.030Z,98464.40
2022-08-05T03:21:02.583Z,98463.20
2022-08-05T03:24:09.866Z,98458.60
2022-08-05T03:27:19.100Z,98453.40
2022-08-05T03:30:33.347Z,98452.20
2022-08-05T03:33:50.927Z,98456.00
2022-08-05T03:36:57.280Z,98449.40
2022-08-05T03:40:06.941Z,98448.80
2022-08-05T03:44:09.535Z,98445.60
2022-08-05T03:46:42.576Z,98447.20
2022-08-05T03:49:51.536Z,98451.00
2022-08-05T03:55:50.630Z,98449.00
2022-08-05T03:56:36.994Z,98456.40
2022-08-05T03:59:54.841Z,98455.40
2022-08-05T04:03:05.897Z,98457.60
2022-08-05T04:06:11.350Z,98459.60
2022-08-05T04:09:25.870Z,98460.00
2022-08-05T04:12:31.563Z,98459.80
2022-08-05T04:15:36.851Z,98456.40
2022-08-05T04:18:41.671Z,98460.60
2022-08-05T04:22:09.390Z,98456.20
2022-08-05T04:25:12.951Z,98456.00
2022-08-05T04:28:20.880Z,98452.00
2022-08-05T04:31:38.509Z,98448.00
2022-08-05T04:34:43.468Z,98449.60
2022-08-05T04:38:02.493Z,98459.60
2022-08-05T04:41:11.107Z,98457.20
2022-08-05T04:44:21.038Z,98453.00
2022-08-05T04:47:29.633Z,98452.40
2022-08-05T04:51:02.812Z,98456.00
2022-08-05T04:54:10.540Z,98456.60
2022-08-05T04:57:17.052Z,98457.40
2022-08-05T05:00:23.495Z,98457.80
2022-08-05T05:03:41.958Z,98456.40
2022-08-05T05:06:52.006Z,98459.40
2022-08-05T05:10:05.080Z,98455.60
2022-08-05T05:13:10.691Z,98450.20
2022-08-05T05:16:19.813Z,98450.20
2022-08-05T05:19:27.437Z,98454.80
2022-08-05T05:22:44.051Z,98451.00
2022-08-05T05:25:49.063Z,98453.60
2022-08-05T05:28:53.650Z,98452.60
2022-08-05T05:32:01.642Z,98455.00
2022-08-05T05:35:10.305Z,98452.00
2022-08-05T05:38:27.425Z,98450.00
2022-08-05T05:41:40.614Z,98448.80
2022-08-05T05:44:47.059Z,98440.60
2022-08-05T05:48:06.724Z,98441.20
2022-08-05T05:51:17.621Z,98441.60
2022-08-05T05:54:22.171Z,98448.60
2022-08-05T05:57:52.661Z,98444.80
2022-08-05T06:01:02.427Z,98448.20
2022-08-05T06:04:17.872Z,98447.00
2022-08-05T06:07:41.529Z,98448.40
2022-08-05T06:10:52.630Z,98451.60
2022-08-05T06:13:57.991Z,98452.00
2022-08-05T06:17:22.672Z,98449.20
2022-08-05T06:20:30.256Z,98452.40
2022-08-05T06:23:44.089Z,98448.80
2022-08-05T06:26:52.192Z,98451.40
2022-08-05T06:30:04.583Z,98449.20
2022-08-05T06:33:33.270Z,98452.20
2022-08-05T06:36:56.737Z,98451.40
2022-08-05T06:40:03.773Z,98450.60
2022-08-05T06:43:51.632Z,98454.60
2022-08-05T06:46:33.173Z,98448.20
2022-08-05T06:50:01.544Z,98453.80
2022-08-05T06:53:19.539Z,98455.00
2022-08-05T06:56:28.263Z,98457.40
2022-08-05T06:59:38.601Z,98460.80
2022-08-05T07:02:48.330Z,98459.40
2022-08-05T07:05:59.097Z,98464.60
2022-08-05T07:09:04.765Z,98463.80
2022-08-05T07:12:31.170Z,98461.80
2022-08-05T07:16:01.045Z,98464.40
2022-08-05T07:19:09.020Z,98467.20
2022-08-05T07:22:14.096Z,98464.20
2022-08-05T07:25:54.320Z,98468.60
2022-08-05T07:28:45.386Z,98463.00
2022-08-05T07:31:54.424Z,98461.80
2022-08-05T07:35:00.078Z,98458.20
2022-08-05T07:38:33.824Z,98452.60
2022-08-05T07:42:14.747Z,98458.00
2022-08-05T07:45:09.393Z,98458.40
2022-08-05T07:48:15.801Z,98453.00
2022-08-05T07:51:53.077Z,98462.80
2022-08-05T07:54:58.489Z,98459.80
2022-08-05T07:58:03.952Z,98460.40
2022-08-05T08:01:12.075Z,98458.00
2022-08-05T08:04:17.200Z,98457.80
2022-08-05T08:07:59.249Z,98457.40
2022-08-05T08:11:03.960Z,98458.00
2022-08-05T08:14:18.367Z,98462.20
2022-08-05T08:17:24.555Z,98464.80
2022-08-05T08:21:00.344Z,98456.20
2022-08-05T08:24:01.378Z,98465.60
2022-08-05T08:27:09.604Z,98462.80
2022-08-05T08:30:19.660Z,98459.40
2022-08-05T08:33:39.118Z,98460.20
2022-08-05T08:36:49.943Z,98460.20
2022-08-05T08:39:57.610Z,98462.40
2022-08-05T08:44:55.737Z,98466.00
2022-08-05T08:46:32.187Z,98462.00
2022-08-05T08:50:14.162Z,98465.20
2022-08-05T08:53:13.002Z,98465.60
2022-08-05T08:56:20.410Z,98461.00
2022-08-05T08:59:33.611Z,98463.20
2022-08-05T09:02:39.774Z,98466.80
2022-08-05T09:06:09.162Z,98461.80
2022-08-05T09:09:09.788Z,98452.80
2022-08-05T09:12:20.816Z,98460.00
2022-08-05T09:15:32.529Z,98456.80
2022-08-05T09:18:43.906Z,98454.00
2022-08-05T09:22:22.719Z,98450.60
2022-08-05T09:25:24.405Z,98451.20
2022-08-05T09:28:48.092Z,98447.20
2022-08-05T09:32:41.098Z,98442.00
2022-08-05T09:35:32.719Z,98444.20
2022-08-05T09:38:37.633Z,98436.80
2022-08-05T09:42:00.316Z,98441.80
2022-08-05T09:46:04.719Z,98441.40
2022-08-05T09:48:38.524Z,98442.20
2022-08-05T09:51:43.447Z,98441.40
2022-08-05T09:55:06.177Z,98439.00
2022-08-05T09:58:15.984Z,98432.00
2022-08-05T10:01:31.865Z,98429.20
2022-08-05T10:04:40.338Z,98422.40
2022-08-05T10:08:36.010Z,98427.60
2022-08-05T10:11:17.636Z,98420.80
2022-08-05T10:14:27.795Z,98418.60
2022-08-05T10:17:37.827Z,98412.20
2022-08-05T10:20:49.160Z,98412.00
2022-08-05T10:23:59.208Z,98405.00
2022-08-05T10:27:07.611Z,98405.40
2022-08-05T10:32:46.768Z,98406.40
2022-08-05T10:33:38.099Z,98403.20
2022-08-05T10:36:45.620Z,98405.60
2022-08-05T10:39:59.526Z,98401.60
2022-08-05T10:43:36.429Z,98397.00
2022-08-05T10:46:50.629Z,98399.40
2022-08-05T10:50:33.097Z,98397.40
2022-08-05T10:53:42.554Z,98394.20
2022-08-05T10:56:55.325Z,98397.60
2022-08-05T11:00:18.627Z,98390.00
2022-08-05T11:03:27.072Z,98384.20
2022-08-05T11:06:32.881Z,98384.60
2022-08-05T11:09:46.900Z,98381.20
2022-08-05T11:12:54.862Z,98390.40
2022-08-05T11:16:22.148Z,98387.60
2022-08-05T11:20:11.054Z,98386.80
2022-08-05T11:24:04.182Z,98381.40
2022-08-05T11:27:50.160Z,98375.20
2022-08-05T11:31:56.519Z,98380.80
2022-08-05T11:34:59.090Z,98380.80
2022-08-05T11:38:30.748Z,98375.60
2022-08-05T11:41:56.170Z,98376.60
2022-08-05T11:45:05.611Z,98372.60
2022-08-05T11:48:19.063Z,98364.40
2022-08-05T11:51:44.078Z,98368.00
2022-08-05T11:54:55.066Z,98370.80
2022-08-05T11:58:09.498Z,98374.80
2022-08-05T12:01:20.254Z,98378.60
2022-08-05T12:04:29.214Z,98376.60
2022-08-05T12:08:08.932Z,98373.40
2022-08-05T12:11:06.825Z,98370.20
2022-08-05T12:14:10.779Z,98373.40
2022-08-05T12:18:03.159Z,98370.00
2022-08-05T12:20:42.277Z,98360.00
2022-08-05T12:24:04.330Z,98365.80
2022-08-05T12:27:21.513Z,98360.80
2022-08-05T12:30:45.936Z,98351.80
2022-08-05T12:33:51.526Z,98350.00
2022-08-05T12:37:00.298Z,98353.00
2022-08-05T12:40:11.621Z,98355.60
2022-08-05T12:43:32.408Z,98354.60
2022-08-05T12:46:38.847Z,98355.60
2022-08-05T12:50:02.338Z,98352.40
2022-08-05T12:53:16.667Z,98352.60
2022-08-05T12:56:34.220Z,98350.80
2022-08-05T13:01:57.040Z,98338.60
2022-08-05T13:03:15.461Z,98338.60
2022-08-05T13:06:20.238Z,98332.60
2022-08-05T13:09:28.594Z,98330.80
2022-08-05T13:12:42.536Z,98330.60
2022-08-05T13:15:56.429Z,98330.60
2022-08-05T13:19:03.588Z,98319.80
2022-08-05T13:22:12.074Z,98312.60
2022-08-05T13:25:22.249Z,98313.00
2022-08-05T13:28:44.089Z,98313.60
2022-08-05T13:32:03.753Z,98308.40
2022-08-05T13:35:11.074Z,98301.80
2022-08-05T13:38:28.369Z,98300.40
2022-08-05T13:41:37.729Z,98295.20
2022-08-05T13:44:45.502Z,98297.20
2022-08-05T13:48:09.548Z,98294.40
2022-08-05T13:51:15.458Z,98288.80
2022-08-05T13:54:24.873Z,98286.80
2022-08-05T13:57:50.573Z,98290.80
2022-08-05T14:00:55.417Z,98281.80
2022-08-05T14:04:18.324Z,98277.80
2022-08-05T14:08:00.139Z,98271.80
2022-08-05T14:10:51.604Z,98271.60
2022-08-05T14:13:56.900Z,98269.60
2022-08-05T14:17:02.864Z,98263.20
2022-08-05T14:20:10.769Z,98261.00
2022-08-05T14:23:25.489Z,98257.00
2022-08-05T14:26:38.676Z,98256.00
2022-08-05T14:29:51.440Z,98253.40
2022-08-05T14:32:58.158Z,98255.40
2022-08-05T14:36:03.435Z,98257.40
2022-08-05T14:39:08.222Z,98250.80
2022-08-05T14:42:20.788Z,98244.80
2022-08-05T14:45:26.512Z,98244.40
2022-08-05T14:48:33.304Z,98245.40
2022-08-05T14:51:42.815Z,98246.20
2022-08-05T14:54:53.143Z,98243.60
2022-08-05T14:57:58.108Z,98242.80
2022-08-05T15:01:03.422Z,98237.40
2022-08-05T15:04:11.544Z,98235.20
2022-08-05T15:08:09.094Z,98232.20
2022-08-05T15:10:42.773Z,98226.60
2022-08-05T15:13:50.443Z,98225.40
2022-08-05T15:16:55.911Z,98225.00
2022-08-05T15:20:00.752Z,98224.60
2022-08-05T15:23:08.941Z,98219.20
2022-08-05T15:26:14.976Z,98213.00
2022-08-05T15:29:19.857Z,98215.20
2022-08-05T15:32:28.869Z,98212.60
2022-08-05T15:35:36.100Z,98207.20
2022-08-05T15:38:42.118Z,98207.60
2022-08-05T15:41:55.617Z,98208.40
2022-08-05T15:45:02.340Z,98205.40
2022-08-05T15:48:09.273Z,98202.20
2022-08-05T15:51:22.023Z,98204.40
2022-08-05T15:54:48.028Z,98203.60
2022-08-05T15:57:54.265Z,98202.00
2022-08-05T16:01:16.024Z,98203.60
2022-08-05T16:04:25.755Z,98206.20
2022-08-05T16:07:29.987Z,98204.60
2022-08-05T16:10:35.369Z,98204.20
2022-08-05T16:13:41.140Z,98202.60
2022-08-05T16:16:46.689Z,98200.40
2022-08-05T16:20:05.322Z,98198.80
2022-08-05T16:23:16.282Z,98198.60
2022-08-05T16:26:26.661Z,98204.40
2022-08-05T16:29:37.339Z,98201.40
2022-08-05T16:32:42.942Z,98198.60
2022-08-05T16:35:52.905Z,98201.00
2022-08-05T16:38:58.981Z,98194.80
2022-08-05T16:42:14.592Z,98194.60
2022-08-05T16:46:07.098Z,98196.00
2022-08-05T16:48:47.713Z,98191.00
2022-08-05T16:51:54.814Z,98190.80
2022-08-05T16:55:01.831Z,98194.00
2022-08-05T16:58:09.426Z,98187.60
2022-08-05T17:01:14.403Z,98196.60
2022-08-05T17:04:19.557Z,98194.80
2022-08-05T17:07:31.985Z,98193.60
2022-08-05T17:10:44.543Z,98192.80
2022-08-05T17:13:49.174Z,98195.80
2022-08-05T17:16:54.422Z,98193.60
2022-08-05T17:20:00.310Z,98197.60
2022-08-05T17:23:05.447Z,98197.00
2022-08-05T17:26:10.046Z,98201.40
2022-08-05T17:29:16.874Z,98202.20
2022-08-05T17:32:21.590Z,98206.80
2022-08-05T17:36:06.937Z,98202.60
2022-08-05T17:38:54.586Z,98206.00
2022-08-05T17:42:18.861Z,98209.80
2022-08-05T17:45:38.150Z,98206.80
2022-08-05T17:48:44.807Z,98213.20
2022-08-05T17:51:52.121Z,98213.20
2022-08-05T17:54:59.793Z,98218.20
2022-08-05T17:58:04.571Z,98218.40
2022-08-05T18:01:11.671Z,98216.60
2022-08-05T18:04:21.090Z,98211.60
2022-08-05T18:07:40.905Z,98209.00
2022-08-05T18:10:47.360Z,98204.20
2022-08-05T18:13:53.386Z,98211.40
2022-08-05T18:16:57.981Z,98212.60
2022-08-05T18:20:06.918Z,98210.00
2022-08-05T18:23:19.499Z,98213.60
2022-08-05T18:26:29.016Z,98212.80
2022-08-05T18:29:40.859Z,98216.40
2022-08-05T18:32:53.583Z,98220.80
2022-08-05T18:36:11.866Z,98216.80
2022-08-05T18:39:41.908Z,98221.80
2022-08-05T18:42:45.129Z,98223.00
2022-08-05T18:45:51.381Z,98226.80
2022-08-05T18:49:22.847Z,98223.60
2022-08-05T18:52:36.725Z,98224.80
2022-08-05T18:55:41.488Z,98228.60
2022-08-05T18:58:46.262Z,98225.40
2022-08-05T19:01:57.180Z,98232.20
2022-08-05T19:06:05.549Z,98231.80
2022-08-05T19:08:31.321Z,98231.00
2022-08-05T19:11:59.436Z,98231.40
2022-08-05T19:15:02.936Z,98239.40
2022-08-05T19:18:13.426Z,98239.20
2022-08-05T19:21:27.732Z,98236.40
2022-08-05T19:24:39.409Z,98233.20
2022-08-05T19:28:01.513Z,98232.60
2022-08-05T19:31:13.498Z,98233.00
2022-08-05T19:34:18.886Z,98244.20
2022-08-05T19:37:35.152Z,98240.20
2022-08-05T19:40:48.925Z,98234.80
2022-08-05T19:44:06.316Z,98239.60
2022-08-05T19:47:12.301Z,98236.00
2022-08-05T19:50:23.635Z,98232.20
2022-08-05T19:54:04.002Z,98228.00
2022-08-05T19:56:55.702Z,98229.80
2022-08-05T20:00:04.673Z,98225.40
2022-08-05T20:03:11.696Z,98229.60
2022-08-05T20:06:29.138Z,98232.60
2022-08-05T20:09:54.909Z,98229.60
2022-08-05T20:12:59.347Z,98238.40
2022-08-05T20:16:04.651Z,98238.40
2022-08-05T20:19:09.869Z,98231.40
2022-08-05T20:22:15.407Z,98231.60
2022-08-05T20:25:23.178Z,98235.60
2022-08-05T20:28:28.667Z,98235.40
2022-08-05T20:31:42.763Z,98233.40
2022-08-05T20:34:57.347Z,98238.20
2022-08-05T20:38:05.356Z,98237.60
2022-08-05T20:41:17.621Z,98240.60
2022-08-05T20:44:30.870Z,98246.80
2022-08-05T20:47:40.105Z,98242.20
2022-08-05T20:50:45.547Z,98246.20
2022-08-05T20:53:55.225Z,98247.80
2022-08-05T20:57:03.428Z,98247.20
2022-08-05T21:00:36.385Z,98245.40
2022-08-05T21:03:38.328Z,98251.00
2022-08-05T21:06:53.527Z,98253.20
2022-08-05T21:09:59.211Z,98253.80
2022-08-05T21:13:11.037Z,98251.40
2022-08-05T21:16:21.053Z,98256.40
2022-08-05T21:19:28.393Z,98257.40
2022-08-05T21:22:33.324Z,98256.20
2022-08-05T21:25:43.831Z,98256.40
2022-08-05T21:28:51.039Z,98258.80
2022-08-05T21:31:56.052Z,98262.40
2022-08-05T21:35:17.586Z,98267.20
2022-08-05T21:38:23.270Z,98275.60
2022-08-05T21:41:34.033Z,98276.60
2022-08-05T21:44:39.897Z,98276.20
2022-08-05T21:47:55.823Z,98272.20
2022-08-05T21:51:02.088Z,98262.80
2022-08-05T21:54:07.228Z,98268.00
2022-08-05T22:00:40.099Z,98277.40
2022-08-05T22:03:52.067Z,98268.80
2022-08-05T22:06:58.463Z,98271.80
2022-08-05T22:10:03.743Z,98272.60
2022-08-05T22:14:05.538Z,98273.00
2022-08-05T22:16:41.988Z,98269.80
2022-08-05T22:20:00.358Z,98276.60
2022-08-05T22:24:01.968Z,98274.40
2022-08-05T22:27:22.126Z,98270.40
2022-08-05T22:30:32.220Z,98267.60
2022-08-05T22:33:57.386Z,98273.00
2022-08-05T22:37:04.775Z,98274.80
2022-08-05T22:40:16.763Z,98271.60
2022-08-05T22:43:37.189Z,98270.60
2022-08-05T22:46:42.626Z,98266.40
2022-08-05T22:50:19.345Z,98266.20
2022-08-05T22:53:15.919Z,98262.00
2022-08-05T22:56:29.832Z,98263.20
2022-08-05T22:59:45.400Z,98257.80
2022-08-05T23:02:55.536Z,98254.20
2022-08-05T23:06:00.300Z,98257.80
2022-08-05T23:09:26.799Z,98255.40
2022-08-05T23:12:32.461Z,98251.20
2022-08-05T23:15:38.205Z,98253.20
2022-08-05T23:18:44.394Z,98251.60
2022-08-05T23:21:49.620Z,98253.60
2022-08-05T23:24:55.035Z,98256.20
2022-08-05T23:28:00.675Z,98254.40
2022-08-05T23:31:16.991Z,98257.20
2022-08-05T23:34:24.618Z,98257.00
2022-08-05T23:37:36.566Z,98252.60
2022-08-05T23:40:42.560Z,98242.40
2022-08-05T23:44:06.492Z,98249.00
2022-08-05T23:47:15.745Z,98249.80
2022-08-05T23:50:21.027Z,98247.80
2022-08-05T23:53:28.539Z,98252.80
2022-08-05T23:56:51.249Z,98248.40
